Time,TemperatureF,DewpointF,PressureIn,WindDirection,WindDirectionDegrees,WindSpeedMPH,WindSpeedGustMPH,Humidity,HourlyPrecipIn,Conditions,Clouds,dailyrainin,SolarRadiationWatts/m^2,SoftwareType,DateUTC
2013-09-04 00:04:00,72.0,67.0,-100.00,NW,316,1.0,4.0,85,0.00,,,0.77,0.000000,,2013-09-04 04:04:00,
2013-09-04 00:44:00,72.0,68.0,-100.00,NW,325,2.0,4.0,86,0.00,,,0.77,0.000000,,2013-09-04 04:44:00,
2013-09-04 00:54:00,72.0,68.0,-100.00,NW,325,2.0,4.0,86,0.00,,,0.77,0.000000,,2013-09-04 04:54:00,
2013-09-04 01:03:00,72.0,68.0,-100.00,NW,325,2.0,4.0,86,0.00,,,0.77,0.000000,,2013-09-04 05:03:00,
2013-09-04 01:43:00,69.0,67.0,-100.00,WNW,299,3.0,4.0,93,0.00,,,0.77,0.000000,,2013-09-04 05:43:00,
2013-09-04 01:53:00,69.0,67.0,-100.00,WNW,299,3.0,4.0,93,0.00,,,0.77,0.000000,,2013-09-04 05:53:00,
2013-09-04 02:02:00,69.0,67.0,-100.00,WNW,299,3.0,4.0,93,0.00,,,0.77,0.000000,,2013-09-04 06:02:00,
2013-09-04 02:42:00,69.0,67.0,-100.00,WNW,295,3.0,4.0,93,0.00,,,0.77,0.000000,,2013-09-04 06:42:00,
2013-09-04 02:52:00,69.0,67.0,-100.00,WNW,295,3.0,4.0,93,0.00,,,0.77,0.000000,,2013-09-04 06:52:00,
2013-09-04 03:02:00,69.0,67.0,-100.00,WNW,295,3.0,4.0,93,0.00,,,0.77,0.000000,,2013-09-04 07:02:00,
2013-09-04 03:42:00,68.0,66.0,-100.00,WNW,298,3.0,5.0,92,0.00,,,0.77,0.000000,,2013-09-04 07:42:00,
2013-09-04 03:52:00,68.0,66.0,-100.00,WNW,298,3.0,5.0,92,0.00,,,0.77,0.000000,,2013-09-04 07:52:00,
2013-09-04 04:02:00,68.0,66.0,-100.00,WNW,298,3.0,5.0,92,0.00,,,0.77,0.000000,,2013-09-04 08:02:00,
2013-09-04 04:43:00,68.0,65.0,-100.00,WNW,294,3.0,5.0,90,0.00,,,0.77,0.000000,,2013-09-04 08:43:00,
2013-09-04 04:52:00,68.0,65.0,-100.00,WNW,294,3.0,5.0,90,0.00,,,0.77,0.000000,,2013-09-04 08:52:00,
2013-09-04 05:01:00,68.0,65.0,-100.00,WNW,294,3.0,5.0,90,0.00,,,0.77,0.000000,,2013-09-04 09:01:00,
2013-09-04 05:43:00,67.0,64.0,-100.00,WNW,289,2.0,4.0,89,0.00,,,0.77,0.000000,,2013-09-04 09:43:00,
2013-09-04 05:53:00,67.0,64.0,-100.00,WNW,289,2.0,4.0,89,0.00,,,0.77,0.000000,,2013-09-04 09:53:00,
2013-09-04 06:03:00,67.0,64.0,-100.00,WNW,289,2.0,4.0,89,0.00,,,0.77,0.000000,,2013-09-04 10:03:00,
2013-09-04 06:42:00,67.0,63.0,-100.00,WNW,295,2.0,5.0,88,0.00,,,0.77,0.000000,,2013-09-04 10:42:00,
2013-09-04 06:52:00,67.0,63.0,-100.00,WNW,295,2.0,5.0,88,0.00,,,0.77,0.000000,,2013-09-04 10:52:00,
2013-09-04 07:03:00,67.0,63.0,-100.00,WNW,295,2.0,5.0,88,0.00,,,0.77,0.000000,,2013-09-04 11:03:00,
2013-09-04 07:42:00,65.0,63.0,-100.00,WNW,300,3.0,4.0,92,0.00,,,0.73,0.000000,,2013-09-04 11:42:00,
2013-09-04 07:52:00,65.0,63.0,-100.00,WNW,300,3.0,4.0,92,0.00,,,0.73,0.000000,,2013-09-04 11:52:00,
2013-09-04 08:02:00,65.0,63.0,-100.00,WNW,300,3.0,4.0,92,0.00,,,0.73,0.000000,,2013-09-04 12:02:00,
2013-09-04 08:42:00,67.0,64.0,-100.00,NW,311,3.0,6.0,90,0.00,,,0.00,31.000000,,2013-09-04 12:42:00,
2013-09-04 08:52:00,67.0,64.0,-100.00,NW,311,3.0,6.0,90,0.00,,,0.00,31.000000,,2013-09-04 12:52:00,
2013-09-04 09:02:00,67.0,64.0,-100.00,NW,311,3.0,6.0,90,0.00,,,0.00,31.000000,,2013-09-04 13:02:00,
2013-09-04 09:42:00,73.0,68.0,-100.00,NNW,340,1.0,3.0,84,0.00,,,0.00,215.000000,,2013-09-04 13:42:00,
2013-09-04 09:52:00,73.0,68.0,-100.00,NNW,340,1.0,3.0,84,0.00,,,0.00,215.000000,,2013-09-04 13:52:00,
2013-09-04 10:02:00,73.0,68.0,-100.00,NNW,340,1.0,3.0,84,0.00,,,0.00,215.000000,,2013-09-04 14:02:00,
2013-09-04 10:42:00,78.0,67.0,-100.00,NW,304,1.0,4.0,70,0.00,,,0.00,448.000000,,2013-09-04 14:42:00,
2013-09-04 10:52:00,78.0,67.0,-100.00,NW,304,1.0,4.0,70,0.00,,,0.00,448.000000,,2013-09-04 14:52:00,
2013-09-04 11:02:00,78.0,67.0,-100.00,NW,304,1.0,4.0,70,0.00,,,0.00,448.000000,,2013-09-04 15:02:00,
2013-09-04 11:43:00,82.0,67.0,-100.00,SE,143,2.0,5.0,61,0.00,,,0.00,664.000000,,2013-09-04 15:43:00,
2013-09-04 11:53:00,82.0,67.0,-100.00,SE,143,2.0,5.0,61,0.00,,,0.00,664.000000,,2013-09-04 15:53:00,
2013-09-04 12:04:00,82.0,67.0,-100.00,SE,143,2.0,5.0,61,0.00,,,0.00,664.000000,,2013-09-04 16:04:00,
2013-09-04 12:43:00,82.0,66.0,-100.00,ESE,111,2.0,5.0,59,0.00,,,0.00,766.000000,,2013-09-04 16:43:00,
2013-09-04 12:53:00,82.0,66.0,-100.00,ESE,111,2.0,5.0,59,0.00,,,0.00,766.000000,,2013-09-04 16:53:00,
2013-09-04 13:03:00,82.0,66.0,-100.00,ESE,111,2.0,5.0,59,0.00,,,0.00,766.000000,,2013-09-04 17:03:00,
2013-09-04 13:42:00,85.0,67.0,-100.00,SE,141,2.0,5.0,55,0.00,,,0.00,836.000000,,2013-09-04 17:42:00,
2013-09-04 13:53:00,85.0,67.0,-100.00,SE,141,2.0,5.0,55,0.00,,,0.00,836.000000,,2013-09-04 17:53:00,
2013-09-04 14:02:00,85.0,67.0,-100.00,SE,141,2.0,5.0,55,0.00,,,0.00,836.000000,,2013-09-04 18:02:00,
2013-09-04 14:42:00,84.0,67.0,-100.00,ESE,123,2.0,5.0,56,0.00,,,0.00,887.000000,,2013-09-04 18:42:00,
2013-09-04 14:52:00,84.0,67.0,-100.00,ESE,123,2.0,5.0,56,0.00,,,0.00,887.000000,,2013-09-04 18:52:00,
2013-09-04 15:02:00,84.0,67.0,-100.00,ESE,123,2.0,5.0,56,0.00,,,0.00,887.000000,,2013-09-04 19:02:00,
2013-09-04 15:42:00,85.0,69.0,-100.00,SE,133,2.0,5.0,59,0.00,,,0.00,827.000000,,2013-09-04 19:42:00,
2013-09-04 15:53:00,85.0,69.0,-100.00,SE,133,2.0,5.0,59,0.00,,,0.00,827.000000,,2013-09-04 19:53:00,
2013-09-04 16:02:00,85.0,69.0,-100.00,SE,133,2.0,5.0,59,0.00,,,0.00,827.000000,,2013-09-04 20:02:00,
2013-09-04 16:43:00,83.0,68.0,-100.00,ESE,118,2.0,4.0,61,0.00,,,0.00,721.000000,,2013-09-04 20:43:00,
2013-09-04 16:53:00,83.0,68.0,-100.00,ESE,118,2.0,4.0,61,0.00,,,0.00,721.000000,,2013-09-04 20:53:00,
2013-09-04 17:02:00,83.0,68.0,-100.00,ESE,118,2.0,4.0,61,0.00,,,0.00,721.000000,,2013-09-04 21:02:00,
2013-09-04 17:44:00,83.0,67.0,-100.00,ESE,119,2.0,4.0,58,0.00,,,0.00,624.000000,,2013-09-04 21:44:00,
2013-09-04 17:54:00,83.0,67.0,-100.00,ESE,119,2.0,4.0,58,0.00,,,0.00,624.000000,,2013-09-04 21:54:00,
2013-09-04 18:04:00,83.0,67.0,-100.00,ESE,119,2.0,4.0,58,0.00,,,0.00,624.000000,,2013-09-04 22:04:00,
2013-09-04 18:43:00,78.0,67.0,-100.00,ESE,119,1.0,4.0,70,0.00,,,0.00,179.000000,,2013-09-04 22:43:00,
2013-09-04 18:55:00,78.0,67.0,-100.00,ESE,119,1.0,4.0,70,0.00,,,0.00,179.000000,,2013-09-04 22:55:00,
2013-09-04 19:03:00,78.0,67.0,-100.00,ESE,119,1.0,4.0,70,0.00,,,0.00,179.000000,,2013-09-04 23:03:00,
2013-09-04 19:42:00,76.0,69.0,-100.00,NW,317,0.0,3.0,79,0.00,,,0.00,39.000000,,2013-09-04 23:42:00,
2013-09-04 19:52:00,76.0,69.0,-100.00,NW,317,0.0,3.0,79,0.00,,,0.00,39.000000,,2013-09-04 23:52:00,
2013-09-04 20:01:00,76.0,69.0,-100.00,NW,317,0.0,3.0,79,0.00,,,0.00,39.000000,,2013-09-05 00:01:00,
2013-09-04 20:43:00,72.0,67.0,-100.00,NW,304,2.0,2.0,85,0.00,,,0.00,10.000000,,2013-09-05 00:43:00,
2013-09-04 20:52:00,72.0,67.0,-100.00,NW,304,2.0,2.0,85,0.00,,,0.00,10.000000,,2013-09-05 00:52:00,
2013-09-04 21:01:00,72.0,67.0,-100.00,NW,304,2.0,2.0,85,0.00,,,0.00,10.000000,,2013-09-05 01:01:00,
2013-09-04 21:42:00,72.0,67.0,-100.00,NW,309,2.0,3.0,85,0.00,,,0.00,0.000000,,2013-09-05 01:42:00,
2013-09-04 21:52:00,72.0,67.0,-100.00,NW,309,2.0,3.0,85,0.00,,,0.00,0.000000,,2013-09-05 01:52:00,
2013-09-04 22:02:00,72.0,67.0,-100.00,NW,309,2.0,3.0,85,0.00,,,0.00,0.000000,,2013-09-05 02:02:00,
2013-09-04 22:52:00,71.0,67.0,-100.00,WNW,298,2.0,3.0,87,0.00,,,0.00,0.000000,,2013-09-05 02:52:00,
2013-09-04 23:02:00,71.0,67.0,-100.00,WNW,298,2.0,3.0,87,0.00,,,0.00,0.000000,,2013-09-05 03:02:00,
2013-09-04 23:45:00,70.0,68.0,-100.00,NW,304,3.0,4.0,93,0.00,,,0.00,0.000000,,2013-09-05 03:45:00,
2013-09-04 23:54:00,70.0,68.0,-100.00,NW,304,3.0,4.0,93,0.00,,,0.00,0.000000,,2013-09-05 03:54:00,